unibocconi.it alexa rank chart, unibocconi.it alexa rank daily changes

unibocconi.it alexa rank chart, unibocconi.it alexa rank daily changes

unibocconi.it
Actual rank:
36 623

RANK HISTORY

Date Rank Diff
2018/09/24 36 623 -5 705
2018/09/23 42 328 +7 692
2018/09/22 34 636 +1 189
2018/09/21 33 447 +1 991
2018/09/20 31 456 +5 304
2018/09/19 26 152 -6 604
2018/09/18 32 756 -5 684
2018/09/17 38 440 +5 269
2018/09/16 33 171 -9 647
2018/09/15 42 818 +15 658
2018/09/14 27 160 -1 486
2018/09/13 28 646 +7 946
2018/09/12 20 700 +1 438
2018/09/11 19 262 -12 242
2018/09/10 31 504 +2 228
2018/09/09 29 276 -4 836
2018/09/08 34 112 +6 794
2018/09/07 27 318 +4 532
2018/09/06 22 786 -16 963
2018/09/05 39 749 +11 465
2018/09/04 28 284 -4 261
2018/09/03 32 545 -7 600
2018/09/02 40 145 +6 934
2018/09/01 33 211 +1 829
2018/08/31 31 382 -8 957
2018/08/30 40 339 -7 378
2018/08/29 47 717 +17 862
2018/08/28 29 855 -9 977
2018/08/27 39 832 -8 563
2018/08/26 48 395 -5 042
2018/08/25 53 437 +7 997
2018/08/24 45 440 +891
2018/08/23 44 549 -14 465
2018/08/22 59 014 -82 040
2018/08/21 141 054 +55 805
2018/08/20 85 249 +35 373
2018/08/19 49 876 -76 699
2018/08/18 126 575 +42 730
2018/08/17 83 845 +11 474
2018/08/16 72 371 +15 826
2018/08/15 56 545 -29 467
2018/08/14 86 012 -20 154
2018/08/13 106 166 +6 983
2018/08/12 99 183 -6 244
2018/08/11 105 427 +28 245
2018/08/10 77 182 -20 638
2018/08/09 97 820 +35 347
2018/08/08 62 473 -8 204
2018/08/07 70 677 +40 431
2018/08/06 30 246 -61 652
2018/08/05 91 898 +43 653
2018/08/04 48 245 -2 931
2018/08/03 51 176 -2 407
2018/08/02 53 583 +12 417
2018/08/01 41 166 -123 372
2018/07/31 164 538 +68 730
2018/07/30 95 808 +57 231
2018/07/29 38 577 -47 225
2018/07/28 85 802 +51 033
2018/07/27 34 769 -25 787
2018/07/26 60 556

WIDGET FOR YOUR SITE

DOMAINS WITH THE NEAREST RANK

Domain Rank
hdmp4mania.world 36 618
flagpolewarehouse.com 36 619
motachashma.com 36 620
humankinetics.com 36 621
palermo.edu 36 622
unibocconi.it 36 623
unn.edu.ng 36 624
kak-eto-sdelano.livejournal.com 36 625
piola.info 36 626
devilmaycry5.com 36 627
inkbox.com 36 628

DOMAINS WITH THE NEAREST RANK BY TLD .it

Domain Rank
monetaonline.it 35 826
medialibrary.it 35 964
webank.it 36 243
agi.it 36 448
ucicinemas.it 36 477
unibocconi.it 36 623
uniba.it 36 638
coggle.it 36 692
farmacoecura.it 36 980
icbpi.it 37 032
autoparti.it 37 063